sensor_id;sensor_type;location;lat;lon;timestamp;P1;durP1;ratioP1;P2;durP2;ratioP2
50815;SDS011;39717;47.324;8.788;2022-11-13T00:00:28;24.20;;;13.77;;
50815;SDS011;39717;47.324;8.788;2022-11-13T00:02:54;24.70;;;12.57;;
50815;SDS011;39717;47.324;8.788;2022-11-13T00:05:20;20.10;;;12.67;;
50815;SDS011;39717;47.324;8.788;2022-11-13T00:07:46;21.30;;;12.57;;
50815;SDS011;39717;47.324;8.788;2022-11-13T00:10:12;21.93;;;13.20;;
50815;SDS011;39717;47.324;8.788;2022-11-13T00:12:39;22.03;;;13.63;;
50815;SDS011;39717;47.324;8.788;2022-11-13T00:15:05;23.50;;;13.47;;
50815;SDS011;39717;47.324;8.788;2022-11-13T00:17:31;24.80;;;13.53;;
50815;SDS011;39717;47.324;8.788;2022-11-13T00:19:57;28.53;;;13.60;;
50815;SDS011;39717;47.324;8.788;2022-11-13T00:22:23;28.63;;;14.03;;
50815;SDS011;39717;47.324;8.788;2022-11-13T00:24:53;26.73;;;14.03;;
50815;SDS011;39717;47.324;8.788;2022-11-13T00:27:19;32.13;;;15.13;;
50815;SDS011;39717;47.324;8.788;2022-11-13T00:29:45;35.07;;;15.47;;
50815;SDS011;39717;47.324;8.788;2022-11-13T00:32:11;25.17;;;14.17;;
50815;SDS011;39717;47.324;8.788;2022-11-13T00:34:37;27.80;;;15.03;;
50815;SDS011;39717;47.324;8.788;2022-11-13T00:37:03;27.67;;;14.70;;
50815;SDS011;39717;47.324;8.788;2022-11-13T00:39:29;30.53;;;15.40;;
50815;SDS011;39717;47.324;8.788;2022-11-13T00:41:55;26.23;;;13.93;;
50815;SDS011;39717;47.324;8.788;2022-11-13T00:44:22;29.07;;;14.77;;
50815;SDS011;39717;47.324;8.788;2022-11-13T00:46:48;31.53;;;14.97;;
50815;SDS011;39717;47.324;8.788;2022-11-13T00:49:14;28.47;;;14.43;;
50815;SDS011;39717;47.324;8.788;2022-11-13T00:51:40;26.97;;;14.47;;
50815;SDS011;39717;47.324;8.788;2022-11-13T00:54:06;24.77;;;14.80;;
50815;SDS011;39717;47.324;8.788;2022-11-13T00:56:32;29.37;;;15.17;;
50815;SDS011;39717;47.324;8.788;2022-11-13T00:58:58;28.77;;;15.43;;
50815;SDS011;39717;47.324;8.788;2022-11-13T01:01:25;31.40;;;15.23;;
50815;SDS011;39717;47.324;8.788;2022-11-13T01:03:51;30.07;;;15.53;;
50815;SDS011;39717;47.324;8.788;2022-11-13T01:06:18;29.80;;;14.93;;
50815;SDS011;39717;47.324;8.788;2022-11-13T01:08:45;29.03;;;14.90;;
50815;SDS011;39717;47.324;8.788;2022-11-13T01:11:16;27.53;;;14.50;;
50815;SDS011;39717;47.324;8.788;2022-11-13T01:13:43;32.37;;;15.47;;
50815;SDS011;39717;47.324;8.788;2022-11-13T01:16:11;28.50;;;14.47;;
50815;SDS011;39717;47.324;8.788;2022-11-13T01:18:37;30.90;;;15.60;;
50815;SDS011;39717;47.324;8.788;2022-11-13T01:21:06;24.90;;;13.27;;
50815;SDS011;39717;47.324;8.788;2022-11-13T01:23:35;28.23;;;14.40;;
50815;SDS011;39717;47.324;8.788;2022-11-13T01:26:08;27.47;;;14.70;;
50815;SDS011;39717;47.324;8.788;2022-11-13T01:28:35;26.20;;;14.30;;
50815;SDS011;39717;47.324;8.788;2022-11-13T01:31:09;20.87;;;11.60;;
50815;SDS011;39717;47.324;8.788;2022-11-13T01:33:36;20.97;;;13.17;;
50815;SDS011;39717;47.324;8.788;2022-11-13T01:36:03;23.43;;;14.03;;
50815;SDS011;39717;47.324;8.788;2022-11-13T01:38:30;22.67;;;12.97;;
50815;SDS011;39717;47.324;8.788;2022-11-13T01:40:56;22.40;;;12.73;;
50815;SDS011;39717;47.324;8.788;2022-11-13T01:43:40;20.40;;;12.50;;
50815;SDS011;39717;47.324;8.788;2022-11-13T01:46:12;17.53;;;11.60;;
50815;SDS011;39717;47.324;8.788;2022-11-13T01:48:49;20.30;;;11.63;;
50815;SDS011;39717;47.324;8.788;2022-11-13T01:52:17;18.30;;;11.93;;
50815;SDS011;39717;47.324;8.788;2022-11-13T01:54:13;19.93;;;11.57;;
50815;SDS011;39717;47.324;8.788;2022-11-13T01:56:41;19.80;;;11.70;;
50815;SDS011;39717;47.324;8.788;2022-11-13T01:59:14;17.73;;;11.83;;
50815;SDS011;39717;47.324;8.788;2022-11-13T02:01:42;18.60;;;12.23;;
50815;SDS011;39717;47.324;8.788;2022-11-13T02:04:09;19.00;;;11.03;;
50815;SDS011;39717;47.324;8.788;2022-11-13T02:06:37;16.87;;;11.20;;
50815;SDS011;39717;47.324;8.788;2022-11-13T02:09:06;17.90;;;11.73;;
50815;SDS011;39717;47.324;8.788;2022-11-13T02:11:32;17.67;;;11.43;;
50815;SDS011;39717;47.324;8.788;2022-11-13T02:13:58;18.10;;;12.07;;
50815;SDS011;39717;47.324;8.788;2022-11-13T02:16:25;18.30;;;10.67;;
50815;SDS011;39717;47.324;8.788;2022-11-13T02:18:52;17.97;;;11.57;;
50815;SDS011;39717;47.324;8.788;2022-11-13T02:24:19;18.23;;;11.90;;
50815;SDS011;39717;47.324;8.788;2022-11-13T02:26:46;18.70;;;11.43;;
50815;SDS011;39717;47.324;8.788;2022-11-13T02:29:13;18.73;;;12.40;;
50815;SDS011;39717;47.324;8.788;2022-11-13T02:31:39;19.27;;;11.80;;
50815;SDS011;39717;47.324;8.788;2022-11-13T02:34:05;17.40;;;11.67;;
50815;SDS011;39717;47.324;8.788;2022-11-13T02:36:31;19.40;;;11.00;;
50815;SDS011;39717;47.324;8.788;2022-11-13T02:38:59;21.23;;;12.37;;
50815;SDS011;39717;47.324;8.788;2022-11-13T02:41:26;19.77;;;11.93;;
50815;SDS011;39717;47.324;8.788;2022-11-13T02:43:52;20.17;;;11.60;;
50815;SDS011;39717;47.324;8.788;2022-11-13T02:46:18;21.53;;;13.00;;
50815;SDS011;39717;47.324;8.788;2022-11-13T02:48:44;24.67;;;13.30;;
50815;SDS011;39717;47.324;8.788;2022-11-13T02:51:10;28.33;;;14.03;;
50815;SDS011;39717;47.324;8.788;2022-11-13T02:53:38;29.00;;;14.70;;
50815;SDS011;39717;47.324;8.788;2022-11-13T02:56:04;32.23;;;15.20;;
50815;SDS011;39717;47.324;8.788;2022-11-13T02:58:31;32.30;;;14.80;;
50815;SDS011;39717;47.324;8.788;2022-11-13T03:00:59;32.07;;;15.50;;
50815;SDS011;39717;47.324;8.788;2022-11-13T03:03:26;30.57;;;15.83;;
50815;SDS011;39717;47.324;8.788;2022-11-13T03:05:53;32.40;;;15.40;;
50815;SDS011;39717;47.324;8.788;2022-11-13T03:08:19;30.13;;;15.93;;
50815;SDS011;39717;47.324;8.788;2022-11-13T03:10:45;32.80;;;15.63;;
50815;SDS011;39717;47.324;8.788;2022-11-13T03:13:12;39.60;;;16.37;;
50815;SDS011;39717;47.324;8.788;2022-11-13T03:15:38;33.37;;;15.57;;
50815;SDS011;39717;47.324;8.788;2022-11-13T03:18:04;34.63;;;17.17;;
50815;SDS011;39717;47.324;8.788;2022-11-13T03:20:31;31.67;;;15.20;;
50815;SDS011;39717;47.324;8.788;2022-11-13T03:22:57;32.03;;;16.17;;
50815;SDS011;39717;47.324;8.788;2022-11-13T03:25:23;36.77;;;16.17;;
50815;SDS011;39717;47.324;8.788;2022-11-13T03:27:49;33.73;;;15.43;;
50815;SDS011;39717;47.324;8.788;2022-11-13T03:30:16;36.20;;;15.93;;
50815;SDS011;39717;47.324;8.788;2022-11-13T03:32:42;35.63;;;16.57;;
50815;SDS011;39717;47.324;8.788;2022-11-13T03:35:08;30.83;;;15.50;;
50815;SDS011;39717;47.324;8.788;2022-11-13T03:37:34;29.57;;;15.90;;
50815;SDS011;39717;47.324;8.788;2022-11-13T03:40:00;26.70;;;14.30;;
50815;SDS011;39717;47.324;8.788;2022-11-13T03:42:26;25.30;;;14.33;;
50815;SDS011;39717;47.324;8.788;2022-11-13T03:44:53;29.60;;;15.10;;
50815;SDS011;39717;47.324;8.788;2022-11-13T03:47:19;22.77;;;13.67;;
50815;SDS011;39717;47.324;8.788;2022-11-13T03:49:45;24.23;;;14.00;;
50815;SDS011;39717;47.324;8.788;2022-11-13T03:52:11;23.43;;;13.90;;
50815;SDS011;39717;47.324;8.788;2022-11-13T03:54:37;25.67;;;13.77;;
50815;SDS011;39717;47.324;8.788;2022-11-13T03:57:03;25.33;;;14.63;;
50815;SDS011;39717;47.324;8.788;2022-11-13T03:59:31;25.77;;;13.73;;
50815;SDS011;39717;47.324;8.788;2022-11-13T04:01:57;25.93;;;14.40;;
50815;SDS011;39717;47.324;8.788;2022-11-13T04:04:23;26.53;;;15.40;;
50815;SDS011;39717;47.324;8.788;2022-11-13T04:06:49;25.60;;;13.93;;
50815;SDS011;39717;47.324;8.788;2022-11-13T04:09:15;28.40;;;15.37;;
50815;SDS011;39717;47.324;8.788;2022-11-13T04:11:41;31.60;;;14.87;;
50815;SDS011;39717;47.324;8.788;2022-11-13T04:14:08;26.23;;;14.13;;
50815;SDS011;39717;47.324;8.788;2022-11-13T04:16:34;25.27;;;15.20;;
50815;SDS011;39717;47.324;8.788;2022-11-13T04:19:00;26.80;;;14.50;;
50815;SDS011;39717;47.324;8.788;2022-11-13T04:21:26;26.03;;;15.00;;
50815;SDS011;39717;47.324;8.788;2022-11-13T04:23:52;26.43;;;14.27;;
50815;SDS011;39717;47.324;8.788;2022-11-13T04:26:19;28.60;;;13.97;;
50815;SDS011;39717;47.324;8.788;2022-11-13T04:28:45;30.87;;;15.70;;
50815;SDS011;39717;47.324;8.788;2022-11-13T04:31:11;28.27;;;15.20;;
50815;SDS011;39717;47.324;8.788;2022-11-13T04:33:37;28.07;;;14.47;;
50815;SDS011;39717;47.324;8.788;2022-11-13T04:36:03;23.63;;;13.87;;
50815;SDS011;39717;47.324;8.788;2022-11-13T04:38:29;25.40;;;14.03;;
50815;SDS011;39717;47.324;8.788;2022-11-13T04:40:56;24.77;;;13.87;;
50815;SDS011;39717;47.324;8.788;2022-11-13T04:43:40;23.23;;;13.53;;
50815;SDS011;39717;47.324;8.788;2022-11-13T04:46:06;23.60;;;12.63;;
50815;SDS011;39717;47.324;8.788;2022-11-13T04:48:33;29.03;;;14.33;;
50815;SDS011;39717;47.324;8.788;2022-11-13T04:50:59;25.47;;;13.97;;
50815;SDS011;39717;47.324;8.788;2022-11-13T04:53:25;25.40;;;13.90;;
50815;SDS011;39717;47.324;8.788;2022-11-13T04:55:52;25.00;;;13.57;;
50815;SDS011;39717;47.324;8.788;2022-11-13T04:58:18;23.10;;;13.87;;
50815;SDS011;39717;47.324;8.788;2022-11-13T05:00:44;25.77;;;14.40;;
50815;SDS011;39717;47.324;8.788;2022-11-13T05:03:10;23.73;;;13.57;;
50815;SDS011;39717;47.324;8.788;2022-11-13T05:05:36;24.53;;;14.30;;
50815;SDS011;39717;47.324;8.788;2022-11-13T05:08:02;26.40;;;14.33;;
50815;SDS011;39717;47.324;8.788;2022-11-13T05:10:29;29.37;;;15.13;;
50815;SDS011;39717;47.324;8.788;2022-11-13T05:12:55;23.60;;;14.33;;
50815;SDS011;39717;47.324;8.788;2022-11-13T05:15:21;28.10;;;16.00;;
50815;SDS011;39717;47.324;8.788;2022-11-13T05:17:48;26.50;;;14.23;;
50815;SDS011;39717;47.324;8.788;2022-11-13T05:20:14;28.00;;;14.80;;
50815;SDS011;39717;47.324;8.788;2022-11-13T05:22:40;23.00;;;13.73;;
50815;SDS011;39717;47.324;8.788;2022-11-13T05:25:06;21.90;;;12.77;;
50815;SDS011;39717;47.324;8.788;2022-11-13T05:27:33;23.37;;;13.13;;
50815;SDS011;39717;47.324;8.788;2022-11-13T05:30:01;22.00;;;12.93;;
50815;SDS011;39717;47.324;8.788;2022-11-13T05:32:28;20.03;;;12.73;;
50815;SDS011;39717;47.324;8.788;2022-11-13T05:34:54;24.43;;;13.37;;
50815;SDS011;39717;47.324;8.788;2022-11-13T05:37:20;21.73;;;13.53;;
50815;SDS011;39717;47.324;8.788;2022-11-13T05:39:46;23.50;;;13.47;;
50815;SDS011;39717;47.324;8.788;2022-11-13T05:42:12;24.70;;;14.40;;
50815;SDS011;39717;47.324;8.788;2022-11-13T05:44:38;25.40;;;14.13;;
50815;SDS011;39717;47.324;8.788;2022-11-13T05:47:04;24.27;;;13.70;;
50815;SDS011;39717;47.324;8.788;2022-11-13T05:49:31;19.97;;;12.53;;
50815;SDS011;39717;47.324;8.788;2022-11-13T05:51:57;24.63;;;13.93;;
50815;SDS011;39717;47.324;8.788;2022-11-13T05:54:23;23.07;;;14.27;;
50815;SDS011;39717;47.324;8.788;2022-11-13T05:56:49;22.60;;;13.20;;
50815;SDS011;39717;47.324;8.788;2022-11-13T05:59:15;23.07;;;13.27;;
50815;SDS011;39717;47.324;8.788;2022-11-13T06:01:41;21.60;;;13.43;;
50815;SDS011;39717;47.324;8.788;2022-11-13T06:04:08;22.00;;;13.47;;
50815;SDS011;39717;47.324;8.788;2022-11-13T06:06:34;25.23;;;13.80;;
50815;SDS011;39717;47.324;8.788;2022-11-13T06:09:03;23.73;;;13.27;;
50815;SDS011;39717;47.324;8.788;2022-11-13T06:11:30;20.00;;;13.77;;
50815;SDS011;39717;47.324;8.788;2022-11-13T06:13:57;18.37;;;11.93;;
50815;SDS011;39717;47.324;8.788;2022-11-13T06:16:28;20.80;;;11.80;;
50815;SDS011;39717;47.324;8.788;2022-11-13T06:18:55;22.40;;;12.73;;
50815;SDS011;39717;47.324;8.788;2022-11-13T06:21:22;22.33;;;13.73;;
50815;SDS011;39717;47.324;8.788;2022-11-13T06:23:49;24.67;;;12.97;;
50815;SDS011;39717;47.324;8.788;2022-11-13T06:26:19;24.33;;;13.93;;
50815;SDS011;39717;47.324;8.788;2022-11-13T06:28:46;22.83;;;13.23;;
50815;SDS011;39717;47.324;8.788;2022-11-13T06:31:13;20.23;;;12.77;;
50815;SDS011;39717;47.324;8.788;2022-11-13T06:33:40;22.43;;;13.00;;
50815;SDS011;39717;47.324;8.788;2022-11-13T06:36:11;22.83;;;12.40;;
50815;SDS011;39717;47.324;8.788;2022-11-13T06:38:38;22.80;;;12.53;;
50815;SDS011;39717;47.324;8.788;2022-11-13T06:41:05;22.10;;;12.17;;
50815;SDS011;39717;47.324;8.788;2022-11-13T06:43:31;20.90;;;12.77;;
50815;SDS011;39717;47.324;8.788;2022-11-13T06:45:57;21.57;;;12.27;;
50815;SDS011;39717;47.324;8.788;2022-11-13T06:48:24;19.23;;;12.67;;
50815;SDS011;39717;47.324;8.788;2022-11-13T06:50:50;21.20;;;12.63;;
50815;SDS011;39717;47.324;8.788;2022-11-13T06:53:16;21.23;;;11.60;;
50815;SDS011;39717;47.324;8.788;2022-11-13T06:55:46;21.23;;;12.77;;
50815;SDS011;39717;47.324;8.788;2022-11-13T06:58:13;21.00;;;12.17;;
50815;SDS011;39717;47.324;8.788;2022-11-13T07:00:40;25.80;;;13.57;;
50815;SDS011;39717;47.324;8.788;2022-11-13T07:03:25;23.80;;;13.20;;
50815;SDS011;39717;47.324;8.788;2022-11-13T07:05:51;20.73;;;12.17;;
50815;SDS011;39717;47.324;8.788;2022-11-13T07:08:17;21.40;;;12.93;;
50815;SDS011;39717;47.324;8.788;2022-11-13T07:10:51;23.10;;;13.07;;
50815;SDS011;39717;47.324;8.788;2022-11-13T07:13:18;19.77;;;12.43;;
50815;SDS011;39717;47.324;8.788;2022-11-13T07:15:45;19.07;;;12.40;;
50815;SDS011;39717;47.324;8.788;2022-11-13T07:18:11;19.80;;;11.93;;
50815;SDS011;39717;47.324;8.788;2022-11-13T07:20:37;18.90;;;11.90;;
50815;SDS011;39717;47.324;8.788;2022-11-13T07:23:03;17.17;;;11.83;;
50815;SDS011;39717;47.324;8.788;2022-11-13T07:25:30;15.90;;;10.43;;
50815;SDS011;39717;47.324;8.788;2022-11-13T07:27:57;17.07;;;10.40;;
50815;SDS011;39717;47.324;8.788;2022-11-13T07:30:23;16.67;;;10.87;;
50815;SDS011;39717;47.324;8.788;2022-11-13T07:32:50;20.20;;;11.37;;
50815;SDS011;39717;47.324;8.788;2022-11-13T07:35:16;18.70;;;11.03;;
50815;SDS011;39717;47.324;8.788;2022-11-13T07:37:43;17.27;;;9.87;;
50815;SDS011;39717;47.324;8.788;2022-11-13T07:40:10;12.67;;;8.57;;
50815;SDS011;39717;47.324;8.788;2022-11-13T07:42:37;11.70;;;8.10;;
50815;SDS011;39717;47.324;8.788;2022-11-13T07:45:04;14.03;;;8.73;;
50815;SDS011;39717;47.324;8.788;2022-11-13T07:47:30;13.27;;;9.70;;
50815;SDS011;39717;47.324;8.788;2022-11-13T07:49:56;14.50;;;9.77;;
50815;SDS011;39717;47.324;8.788;2022-11-13T07:52:22;14.73;;;9.40;;
50815;SDS011;39717;47.324;8.788;2022-11-13T07:54:49;16.60;;;9.67;;
50815;SDS011;39717;47.324;8.788;2022-11-13T07:57:15;12.17;;;9.63;;
50815;SDS011;39717;47.324;8.788;2022-11-13T07:59:41;14.77;;;8.73;;
50815;SDS011;39717;47.324;8.788;2022-11-13T08:02:09;13.40;;;8.33;;
50815;SDS011;39717;47.324;8.788;2022-11-13T08:04:38;12.53;;;8.83;;
50815;SDS011;39717;47.324;8.788;2022-11-13T08:07:04;11.27;;;8.00;;
50815;SDS011;39717;47.324;8.788;2022-11-13T08:09:30;12.20;;;8.80;;
50815;SDS011;39717;47.324;8.788;2022-11-13T08:11:57;13.13;;;8.13;;
50815;SDS011;39717;47.324;8.788;2022-11-13T08:14:23;12.10;;;8.17;;
50815;SDS011;39717;47.324;8.788;2022-11-13T08:16:49;13.93;;;8.90;;
50815;SDS011;39717;47.324;8.788;2022-11-13T08:19:15;11.57;;;8.27;;
50815;SDS011;39717;47.324;8.788;2022-11-13T08:21:41;11.80;;;8.00;;
50815;SDS011;39717;47.324;8.788;2022-11-13T08:24:08;13.67;;;9.50;;
50815;SDS011;39717;47.324;8.788;2022-11-13T08:26:38;13.10;;;8.57;;
50815;SDS011;39717;47.324;8.788;2022-11-13T08:29:04;12.33;;;8.37;;
50815;SDS011;39717;47.324;8.788;2022-11-13T08:31:31;15.80;;;9.40;;
50815;SDS011;39717;47.324;8.788;2022-11-13T08:33:58;13.87;;;9.20;;
50815;SDS011;39717;47.324;8.788;2022-11-13T08:36:25;12.07;;;8.50;;
50815;SDS011;39717;47.324;8.788;2022-11-13T08:38:52;11.73;;;8.40;;
50815;SDS011;39717;47.324;8.788;2022-11-13T08:41:18;12.77;;;8.63;;
50815;SDS011;39717;47.324;8.788;2022-11-13T08:43:44;14.33;;;9.07;;
50815;SDS011;39717;47.324;8.788;2022-11-13T08:46:10;15.57;;;8.83;;
50815;SDS011;39717;47.324;8.788;2022-11-13T08:48:36;13.73;;;8.17;;
50815;SDS011;39717;47.324;8.788;2022-11-13T08:51:02;13.50;;;8.50;;
50815;SDS011;39717;47.324;8.788;2022-11-13T08:53:29;11.73;;;8.13;;
50815;SDS011;39717;47.324;8.788;2022-11-13T08:55:59;13.97;;;8.77;;
50815;SDS011;39717;47.324;8.788;2022-11-13T08:58:26;12.30;;;9.00;;
50815;SDS011;39717;47.324;8.788;2022-11-13T09:00:52;12.70;;;8.90;;
50815;SDS011;39717;47.324;8.788;2022-11-13T09:03:18;11.70;;;7.90;;
50815;SDS011;39717;47.324;8.788;2022-11-13T09:05:44;12.23;;;8.37;;
50815;SDS011;39717;47.324;8.788;2022-11-13T09:08:10;13.67;;;9.37;;
50815;SDS011;39717;47.324;8.788;2022-11-13T09:10:36;12.07;;;8.53;;
50815;SDS011;39717;47.324;8.788;2022-11-13T09:13:03;12.00;;;7.93;;
50815;SDS011;39717;47.324;8.788;2022-11-13T09:15:31;12.17;;;8.63;;
50815;SDS011;39717;47.324;8.788;2022-11-13T09:17:57;12.77;;;8.13;;
50815;SDS011;39717;47.324;8.788;2022-11-13T09:20:25;11.23;;;8.17;;
50815;SDS011;39717;47.324;8.788;2022-11-13T09:22:55;11.20;;;7.70;;
50815;SDS011;39717;47.324;8.788;2022-11-13T09:25:21;11.53;;;7.80;;
50815;SDS011;39717;47.324;8.788;2022-11-13T09:27:52;12.00;;;7.93;;
50815;SDS011;39717;47.324;8.788;2022-11-13T09:30:18;13.10;;;7.40;;
50815;SDS011;39717;47.324;8.788;2022-11-13T09:32:45;9.43;;;6.97;;
50815;SDS011;39717;47.324;8.788;2022-11-13T09:35:11;10.97;;;8.40;;
50815;SDS011;39717;47.324;8.788;2022-11-13T09:37:37;14.47;;;8.53;;
50815;SDS011;39717;47.324;8.788;2022-11-13T09:40:03;12.23;;;7.80;;
50815;SDS011;39717;47.324;8.788;2022-11-13T09:42:29;13.37;;;8.27;;
50815;SDS011;39717;47.324;8.788;2022-11-13T09:45:15;10.87;;;7.57;;
50815;SDS011;39717;47.324;8.788;2022-11-13T09:47:42;11.47;;;7.53;;
50815;SDS011;39717;47.324;8.788;2022-11-13T09:50:16;12.07;;;7.50;;
50815;SDS011;39717;47.324;8.788;2022-11-13T09:52:43;11.20;;;7.53;;
50815;SDS011;39717;47.324;8.788;2022-11-13T09:55:13;10.30;;;7.70;;
50815;SDS011;39717;47.324;8.788;2022-11-13T10:00:11;10.83;;;8.03;;
50815;SDS011;39717;47.324;8.788;2022-11-13T10:02:48;11.17;;;7.30;;
50815;SDS011;39717;47.324;8.788;2022-11-13T10:05:20;12.40;;;7.30;;
50815;SDS011;39717;47.324;8.788;2022-11-13T10:08:04;9.73;;;7.53;;
50815;SDS011;39717;47.324;8.788;2022-11-13T10:10:55;10.97;;;7.57;;
50815;SDS011;39717;47.324;8.788;2022-11-13T10:13:26;11.00;;;7.70;;
50815;SDS011;39717;47.324;8.788;2022-11-13T10:16:05;12.00;;;7.87;;
50815;SDS011;39717;47.324;8.788;2022-11-13T10:18:34;10.07;;;7.33;;
50815;SDS011;39717;47.324;8.788;2022-11-13T10:21:28;10.27;;;7.63;;
50815;SDS011;39717;47.324;8.788;2022-11-13T10:23:55;11.27;;;7.53;;
50815;SDS011;39717;47.324;8.788;2022-11-13T10:26:21;10.93;;;7.67;;
50815;SDS011;39717;47.324;8.788;2022-11-13T10:28:54;10.60;;;7.83;;
50815;SDS011;39717;47.324;8.788;2022-11-13T10:31:21;11.00;;;7.63;;
50815;SDS011;39717;47.324;8.788;2022-11-13T10:33:47;12.47;;;8.57;;
50815;SDS011;39717;47.324;8.788;2022-11-13T10:36:33;11.10;;;7.27;;
50815;SDS011;39717;47.324;8.788;2022-11-13T10:39:03;11.87;;;8.03;;
50815;SDS011;39717;47.324;8.788;2022-11-13T10:41:30;11.37;;;7.43;;
50815;SDS011;39717;47.324;8.788;2022-11-13T10:46:40;11.63;;;7.43;;
50815;SDS011;39717;47.324;8.788;2022-11-13T10:49:40;9.87;;;6.73;;
50815;SDS011;39717;47.324;8.788;2022-11-13T10:51:59;9.43;;;6.93;;
50815;SDS011;39717;47.324;8.788;2022-11-13T10:54:30;10.00;;;7.10;;
50815;SDS011;39717;47.324;8.788;2022-11-13T10:56:58;7.80;;;5.93;;
50815;SDS011;39717;47.324;8.788;2022-11-13T10:59:25;8.27;;;6.23;;
50815;SDS011;39717;47.324;8.788;2022-11-13T11:01:51;8.30;;;6.40;;
50815;SDS011;39717;47.324;8.788;2022-11-13T11:04:21;9.93;;;6.43;;
50815;SDS011;39717;47.324;8.788;2022-11-13T11:06:54;8.43;;;6.40;;
50815;SDS011;39717;47.324;8.788;2022-11-13T11:09:27;10.17;;;6.90;;
50815;SDS011;39717;47.324;8.788;2022-11-13T11:14:57;11.20;;;7.40;;
50815;SDS011;39717;47.324;8.788;2022-11-13T11:17:31;11.03;;;7.33;;
50815;SDS011;39717;47.324;8.788;2022-11-13T11:22:44;8.33;;;6.63;;
50815;SDS011;39717;47.324;8.788;2022-11-13T11:25:57;9.17;;;6.50;;
50815;SDS011;39717;47.324;8.788;2022-11-13T11:28:05;7.90;;;6.17;;
50815;SDS011;39717;47.324;8.788;2022-11-13T11:30:43;9.07;;;7.10;;
50815;SDS011;39717;47.324;8.788;2022-11-13T11:35:51;7.23;;;6.30;;
50815;SDS011;39717;47.324;8.788;2022-11-13T11:38:20;8.13;;;6.63;;
50815;SDS011;39717;47.324;8.788;2022-11-13T11:40:48;8.07;;;6.47;;
50815;SDS011;39717;47.324;8.788;2022-11-13T11:43:22;8.60;;;6.40;;
50815;SDS011;39717;47.324;8.788;2022-11-13T11:45:50;8.70;;;7.17;;
50815;SDS011;39717;47.324;8.788;2022-11-13T11:48:17;9.20;;;6.83;;
50815;SDS011;39717;47.324;8.788;2022-11-13T11:50:49;9.40;;;5.93;;
50815;SDS011;39717;47.324;8.788;2022-11-13T11:53:30;8.20;;;7.03;;
50815;SDS011;39717;47.324;8.788;2022-11-13T11:56:16;10.07;;;6.87;;
50815;SDS011;39717;47.324;8.788;2022-11-13T11:58:58;9.77;;;7.87;;
50815;SDS011;39717;47.324;8.788;2022-11-13T12:17:41;8.30;;;7.03;;
50815;SDS011;39717;47.324;8.788;2022-11-13T12:25:50;8.00;;;6.40;;
50815;SDS011;39717;47.324;8.788;2022-11-13T12:33:16;7.90;;;6.30;;
50815;SDS011;39717;47.324;8.788;2022-11-13T12:35:46;10.03;;;6.87;;
50815;SDS011;39717;47.324;8.788;2022-11-13T12:40:44;8.83;;;6.57;;
50815;SDS011;39717;47.324;8.788;2022-11-13T12:46:02;11.57;;;7.43;;
50815;SDS011;39717;47.324;8.788;2022-11-13T12:48:32;8.87;;;6.67;;
50815;SDS011;39717;47.324;8.788;2022-11-13T12:51:01;8.73;;;6.90;;
50815;SDS011;39717;47.324;8.788;2022-11-13T12:53:28;8.67;;;6.73;;
50815;SDS011;39717;47.324;8.788;2022-11-13T12:55:56;11.03;;;7.53;;
50815;SDS011;39717;47.324;8.788;2022-11-13T12:58:27;12.10;;;8.13;;
50815;SDS011;39717;47.324;8.788;2022-11-13T13:09:04;10.33;;;7.03;;
50815;SDS011;39717;47.324;8.788;2022-11-13T13:14:15;10.23;;;7.33;;
50815;SDS011;39717;47.324;8.788;2022-11-13T13:16:44;9.17;;;6.57;;
50815;SDS011;39717;47.324;8.788;2022-11-13T13:19:26;9.73;;;7.07;;
50815;SDS011;39717;47.324;8.788;2022-11-13T13:21:53;8.97;;;7.13;;
50815;SDS011;39717;47.324;8.788;2022-11-13T13:24:33;10.73;;;7.97;;
50815;SDS011;39717;47.324;8.788;2022-11-13T13:27:00;9.80;;;7.13;;
50815;SDS011;39717;47.324;8.788;2022-11-13T13:29:26;10.23;;;7.53;;
50815;SDS011;39717;47.324;8.788;2022-11-13T13:44:47;10.20;;;7.33;;
50815;SDS011;39717;47.324;8.788;2022-11-13T13:47:25;9.50;;;6.90;;
50815;SDS011;39717;47.324;8.788;2022-11-13T13:49:52;14.43;;;8.57;;
50815;SDS011;39717;47.324;8.788;2022-11-13T13:52:19;9.47;;;7.30;;
50815;SDS011;39717;47.324;8.788;2022-11-13T13:54:47;10.10;;;7.53;;
50815;SDS011;39717;47.324;8.788;2022-11-13T13:57:14;10.07;;;7.57;;
50815;SDS011;39717;47.324;8.788;2022-11-13T13:59:41;9.97;;;6.87;;
50815;SDS011;39717;47.324;8.788;2022-11-13T14:02:13;10.97;;;7.80;;
50815;SDS011;39717;47.324;8.788;2022-11-13T14:04:44;10.33;;;7.57;;
50815;SDS011;39717;47.324;8.788;2022-11-13T14:09:45;11.00;;;7.63;;
50815;SDS011;39717;47.324;8.788;2022-11-13T14:12:18;11.33;;;7.13;;
50815;SDS011;39717;47.324;8.788;2022-11-13T14:14:45;10.53;;;7.47;;
50815;SDS011;39717;47.324;8.788;2022-11-13T14:17:11;11.53;;;7.70;;
50815;SDS011;39717;47.324;8.788;2022-11-13T14:19:52;11.50;;;7.47;;
50815;SDS011;39717;47.324;8.788;2022-11-13T14:22:19;11.57;;;8.20;;
50815;SDS011;39717;47.324;8.788;2022-11-13T14:27:20;13.23;;;7.93;;
50815;SDS011;39717;47.324;8.788;2022-11-13T14:29:51;10.93;;;7.77;;
50815;SDS011;39717;47.324;8.788;2022-11-13T14:32:20;10.20;;;7.77;;
50815;SDS011;39717;47.324;8.788;2022-11-13T14:34:50;10.50;;;8.00;;
50815;SDS011;39717;47.324;8.788;2022-11-13T14:39:53;10.57;;;7.47;;
50815;SDS011;39717;47.324;8.788;2022-11-13T14:42:35;12.73;;;8.77;;
50815;SDS011;39717;47.324;8.788;2022-11-13T14:48:00;11.83;;;8.07;;
50815;SDS011;39717;47.324;8.788;2022-11-13T14:50:30;11.53;;;8.13;;
50815;SDS011;39717;47.324;8.788;2022-11-13T14:52:59;10.97;;;8.00;;
50815;SDS011;39717;47.324;8.788;2022-11-13T14:58:26;11.80;;;8.07;;
50815;SDS011;39717;47.324;8.788;2022-11-13T15:00:53;10.40;;;7.60;;
50815;SDS011;39717;47.324;8.788;2022-11-13T15:03:22;10.73;;;7.60;;
50815;SDS011;39717;47.324;8.788;2022-11-13T15:05:49;9.70;;;7.90;;
50815;SDS011;39717;47.324;8.788;2022-11-13T15:08:15;11.93;;;8.20;;
50815;SDS011;39717;47.324;8.788;2022-11-13T15:10:41;10.83;;;8.20;;
50815;SDS011;39717;47.324;8.788;2022-11-13T15:13:11;9.90;;;8.60;;
50815;SDS011;39717;47.324;8.788;2022-11-13T15:15:37;12.43;;;8.43;;
50815;SDS011;39717;47.324;8.788;2022-11-13T15:18:03;11.07;;;8.97;;
50815;SDS011;39717;47.324;8.788;2022-11-13T15:20:30;12.77;;;8.90;;
50815;SDS011;39717;47.324;8.788;2022-11-13T15:22:57;11.70;;;8.27;;
50815;SDS011;39717;47.324;8.788;2022-11-13T15:25:25;11.43;;;8.30;;
50815;SDS011;39717;47.324;8.788;2022-11-13T15:27:51;11.93;;;8.97;;
50815;SDS011;39717;47.324;8.788;2022-11-13T15:30:17;10.00;;;8.20;;
50815;SDS011;39717;47.324;8.788;2022-11-13T15:32:43;11.23;;;8.53;;
50815;SDS011;39717;47.324;8.788;2022-11-13T15:35:13;10.40;;;7.80;;
50815;SDS011;39717;47.324;8.788;2022-11-13T15:37:39;11.60;;;8.83;;
50815;SDS011;39717;47.324;8.788;2022-11-13T15:40:06;12.20;;;8.97;;
50815;SDS011;39717;47.324;8.788;2022-11-13T15:42:33;11.33;;;7.50;;
50815;SDS011;39717;47.324;8.788;2022-11-13T15:45:00;11.07;;;8.37;;
50815;SDS011;39717;47.324;8.788;2022-11-13T15:47:34;11.53;;;8.70;;
50815;SDS011;39717;47.324;8.788;2022-11-13T15:50:00;11.63;;;8.60;;
50815;SDS011;39717;47.324;8.788;2022-11-13T15:52:30;10.23;;;8.20;;
50815;SDS011;39717;47.324;8.788;2022-11-13T15:54:57;11.10;;;9.10;;
50815;SDS011;39717;47.324;8.788;2022-11-13T15:57:24;12.23;;;8.77;;
50815;SDS011;39717;47.324;8.788;2022-11-13T15:59:52;11.23;;;8.53;;